createdAt,value
2022-11-02T00:01:17.000Z,92
2022-11-02T00:02:43.000Z,91
2022-11-02T00:04:50.000Z,93
2022-11-02T00:06:16.000Z,92
2022-11-02T00:08:22.000Z,92
2022-11-02T00:09:49.000Z,93
2022-11-02T00:11:55.000Z,93
2022-11-02T00:13:21.000Z,93
2022-11-02T00:15:27.000Z,92
2022-11-02T00:16:54.000Z,92
2022-11-02T00:19:00.000Z,93
2022-11-02T00:20:26.000Z,92
2022-11-02T00:22:32.000Z,93
2022-11-02T00:23:59.000Z,93
2022-11-02T00:26:05.000Z,93
2022-11-02T00:27:32.000Z,93
2022-11-02T00:29:38.000Z,92
2022-11-02T00:31:04.000Z,92
2022-11-02T00:33:10.000Z,92
2022-11-02T00:36:01.000Z,93
2022-11-02T00:37:28.000Z,93
2022-11-02T00:39:34.000Z,93
2022-11-02T00:41:00.000Z,93
2022-11-02T00:43:06.000Z,93
2022-11-02T00:44:33.000Z,94
2022-11-02T00:46:39.000Z,93
2022-11-02T00:48:06.000Z,94
2022-11-02T00:50:12.000Z,94
2022-11-02T00:51:39.000Z,94
2022-11-02T00:53:45.000Z,94
2022-11-02T00:55:12.000Z,95
2022-11-02T00:57:18.000Z,95
2022-11-02T00:58:44.000Z,94
2022-11-02T01:00:51.000Z,96
2022-11-02T01:02:17.000Z,96
2022-11-02T01:04:24.000Z,95
2022-11-02T01:05:50.000Z,94
2022-11-02T01:07:56.000Z,94
2022-11-02T01:09:23.000Z,94
2022-11-02T01:11:29.000Z,94
2022-11-02T01:14:20.000Z,94
2022-11-02T01:15:47.000Z,95
2022-11-02T01:17:53.000Z,94
2022-11-02T01:19:19.000Z,93
2022-11-02T01:21:25.000Z,94
2022-11-02T01:22:52.000Z,93
2022-11-02T01:24:58.000Z,93
2022-11-02T01:26:24.000Z,93
2022-11-02T01:28:30.000Z,93
2022-11-02T01:29:57.000Z,93
2022-11-02T01:32:03.000Z,93
2022-11-02T01:33:29.000Z,93
2022-11-02T01:35:36.000Z,93
2022-11-02T01:37:02.000Z,92
2022-11-02T01:39:08.000Z,93
2022-11-02T01:40:35.000Z,92
2022-11-02T01:42:41.000Z,92
2022-11-02T01:44:07.000Z,91
2022-11-02T01:46:13.000Z,91
2022-11-02T01:47:40.000Z,91
2022-11-02T01:49:46.000Z,91
2022-11-02T01:52:37.000Z,92
2022-11-02T01:54:04.000Z,92
2022-11-02T01:56:10.000Z,92
2022-11-02T01:57:36.000Z,92
2022-11-02T01:59:42.000Z,92
2022-11-02T02:01:09.000Z,92
2022-11-02T02:03:15.000Z,92
2022-11-02T02:04:41.000Z,92
2022-11-02T02:06:48.000Z,92
2022-11-02T02:08:14.000Z,91
2022-11-02T02:10:20.000Z,91
2022-11-02T02:11:47.000Z,91
2022-11-02T02:13:53.000Z,91
2022-11-02T02:15:19.000Z,91
2022-11-02T02:17:26.000Z,91
2022-11-02T02:18:52.000Z,90
2022-11-02T02:20:58.000Z,90
2022-11-02T02:22:25.000Z,90
2022-11-02T02:24:31.000Z,90
2022-11-02T02:25:57.000Z,90
2022-11-02T02:28:04.000Z,89
2022-11-02T02:30:55.000Z,89
2022-11-02T02:32:22.000Z,89
2022-11-02T02:34:28.000Z,89
2022-11-02T02:35:54.000Z,88
2022-11-02T02:38:00.000Z,88
2022-11-02T02:39:27.000Z,87
2022-11-02T02:41:34.000Z,87
2022-11-02T02:43:00.000Z,87
2022-11-02T02:45:06.000Z,87
2022-11-02T02:46:33.000Z,86
2022-11-02T02:48:40.000Z,86
2022-11-02T02:50:07.000Z,86
2022-11-02T02:52:13.000Z,86
2022-11-02T02:53:39.000Z,86
2022-11-02T02:55:46.000Z,86
2022-11-02T02:57:12.000Z,86
2022-11-02T02:59:18.000Z,86
2022-11-02T03:00:45.000Z,86
2022-11-02T03:02:51.000Z,86
2022-11-02T03:04:17.000Z,86
2022-11-02T03:06:23.000Z,86
2022-11-02T03:09:15.000Z,86
2022-11-02T03:10:41.000Z,86
2022-11-02T03:12:47.000Z,86
2022-11-02T03:14:14.000Z,86
2022-11-02T03:16:20.000Z,86
2022-11-02T03:17:46.000Z,86
2022-11-02T03:19:52.000Z,86
2022-11-02T03:21:19.000Z,86
2022-11-02T03:23:25.000Z,86
2022-11-02T03:24:51.000Z,86
2022-11-02T03:26:57.000Z,86
2022-11-02T03:28:24.000Z,86
2022-11-02T03:30:30.000Z,86
2022-11-02T03:31:57.000Z,86
2022-11-02T03:34:03.000Z,86
2022-11-02T03:35:29.000Z,86
2022-11-02T03:37:35.000Z,86
2022-11-02T03:39:02.000Z,86
2022-11-02T03:41:08.000Z,85
2022-11-02T03:42:34.000Z,85
2022-11-02T03:44:40.000Z,85
2022-11-02T03:47:31.000Z,85
2022-11-02T03:48:58.000Z,85
2022-11-02T03:51:04.000Z,85
2022-11-02T03:52:30.000Z,85
2022-11-02T03:54:36.000Z,85
2022-11-02T03:56:03.000Z,85
2022-11-02T03:58:09.000Z,85
2022-11-02T03:59:35.000Z,85
2022-11-02T04:01:41.000Z,85
2022-11-02T04:03:08.000Z,84
2022-11-02T04:05:14.000Z,84
2022-11-02T04:06:41.000Z,85
2022-11-02T04:08:47.000Z,84
2022-11-02T04:10:14.000Z,84
2022-11-02T04:12:20.000Z,84
2022-11-02T04:13:46.000Z,85
2022-11-02T04:15:52.000Z,84
2022-11-02T04:17:19.000Z,84
2022-11-02T04:19:25.000Z,85
2022-11-02T04:20:52.000Z,85
2022-11-02T04:22:58.000Z,85
2022-11-02T04:25:49.000Z,85
2022-11-02T04:27:15.000Z,85
2022-11-02T04:29:26.000Z,85
2022-11-02T04:30:53.000Z,86
2022-11-02T04:32:59.000Z,86
2022-11-02T04:34:26.000Z,86
2022-11-02T04:36:32.000Z,86
2022-11-02T04:37:58.000Z,86
2022-11-02T04:40:04.000Z,86
2022-11-02T04:41:31.000Z,86
2022-11-02T04:43:37.000Z,86
2022-11-02T04:45:03.000Z,86
2022-11-02T04:47:09.000Z,86
2022-11-02T04:48:36.000Z,87
2022-11-02T04:50:42.000Z,87
2022-11-02T04:52:08.000Z,87
2022-11-02T04:54:15.000Z,87
2022-11-02T04:55:41.000Z,87
2022-11-02T04:57:47.000Z,87
2022-11-02T04:59:14.000Z,87
2022-11-02T05:01:20.000Z,86
2022-11-02T05:04:11.000Z,86
2022-11-02T05:05:37.000Z,86
2022-11-02T05:07:43.000Z,86
2022-11-02T05:09:10.000Z,86
2022-11-02T05:11:16.000Z,86
2022-11-02T05:12:43.000Z,86
2022-11-02T05:14:49.000Z,86
2022-11-02T05:16:15.000Z,86
2022-11-02T05:19:48.000Z,86
2022-11-02T05:21:54.000Z,86
2022-11-02T05:23:20.000Z,86
2022-11-02T05:25:26.000Z,87
2022-11-02T05:26:53.000Z,86
2022-11-02T05:29:00.000Z,86
2022-11-02T05:30:26.000Z,86
2022-11-02T05:32:32.000Z,86
2022-11-02T05:33:59.000Z,86
2022-11-02T05:36:05.000Z,86
2022-11-02T05:37:31.000Z,86
2022-11-02T05:39:38.000Z,86
2022-11-02T05:42:29.000Z,87
2022-11-02T05:43:55.000Z,86
2022-11-02T05:46:01.000Z,86
2022-11-02T05:47:28.000Z,87
2022-11-02T05:49:34.000Z,87
2022-11-02T05:51:00.000Z,87
2022-11-02T05:53:06.000Z,87
2022-11-02T05:54:33.000Z,87
2022-11-02T05:56:40.000Z,87
2022-11-02T05:58:06.000Z,88
2022-11-02T06:00:12.000Z,88
2022-11-02T06:01:39.000Z,88
2022-11-02T06:03:45.000Z,88
2022-11-02T06:05:19.000Z,88
2022-11-02T06:07:25.000Z,88
2022-11-02T06:08:52.000Z,89
2022-11-02T06:10:58.000Z,89
2022-11-02T06:12:24.000Z,89
2022-11-02T06:14:30.000Z,89
2022-11-02T06:15:57.000Z,89
2022-11-02T06:18:03.000Z,89
2022-11-02T06:20:54.000Z,89
2022-11-02T06:22:21.000Z,89
2022-11-02T06:24:27.000Z,89
2022-11-02T06:25:53.000Z,89
2022-11-02T06:28:00.000Z,89
2022-11-02T06:29:26.000Z,89
2022-11-02T06:31:32.000Z,89
2022-11-02T06:32:59.000Z,89
2022-11-02T06:35:12.000Z,89
2022-11-02T06:36:39.000Z,89
2022-11-02T06:38:45.000Z,89
2022-11-02T06:40:12.000Z,90
2022-11-02T06:42:18.000Z,89
2022-11-02T06:43:44.000Z,89
2022-11-02T06:45:50.000Z,89
2022-11-02T06:47:17.000Z,89
2022-11-02T06:49:23.000Z,89
2022-11-02T06:50:49.000Z,89
2022-11-02T06:52:56.000Z,89
2022-11-02T06:54:22.000Z,89
2022-11-02T06:56:28.000Z,89
2022-11-02T06:59:19.000Z,89
2022-11-02T07:00:46.000Z,89
2022-11-02T07:02:52.000Z,89
2022-11-02T07:04:18.000Z,89
2022-11-02T07:06:24.000Z,89
2022-11-02T07:07:51.000Z,88
2022-11-02T07:09:57.000Z,88
2022-11-02T07:11:24.000Z,88
2022-11-02T07:13:30.000Z,88
2022-11-02T07:14:56.000Z,88
2022-11-02T07:17:02.000Z,88
2022-11-02T07:18:29.000Z,88
2022-11-02T07:20:35.000Z,88
2022-11-02T07:22:02.000Z,88
2022-11-02T07:24:08.000Z,88
2022-11-02T07:25:34.000Z,88
2022-11-02T07:27:40.000Z,88
2022-11-02T07:29:07.000Z,88
2022-11-02T07:31:13.000Z,88
2022-11-02T07:32:39.000Z,88
2022-11-02T07:34:46.000Z,88
2022-11-02T07:37:37.000Z,87
2022-11-02T07:39:03.000Z,88
2022-11-02T07:41:09.000Z,87
2022-11-02T07:42:36.000Z,88
2022-11-02T07:44:42.000Z,88
2022-11-02T07:46:08.000Z,88
2022-11-02T07:48:14.000Z,87
2022-11-02T07:49:41.000Z,87
2022-11-02T07:51:47.000Z,88
2022-11-02T07:53:14.000Z,87
2022-11-02T07:55:20.000Z,87
2022-11-02T07:56:46.000Z,87
2022-11-02T07:58:52.000Z,87
2022-11-02T08:00:19.000Z,86
2022-11-02T08:02:25.000Z,87
2022-11-02T08:03:52.000Z,86
2022-11-02T08:05:58.000Z,86
2022-11-02T08:07:24.000Z,86
2022-11-02T08:09:30.000Z,86
2022-11-02T08:10:57.000Z,85
2022-11-02T08:13:03.000Z,85
2022-11-02T08:15:54.000Z,84
2022-11-02T08:17:21.000Z,84
2022-11-02T08:19:27.000Z,84
2022-11-02T08:20:53.000Z,84
2022-11-02T08:23:02.000Z,84
2022-11-02T08:24:29.000Z,83
2022-11-02T08:26:35.000Z,83
2022-11-02T08:28:01.000Z,84
2022-11-02T08:30:08.000Z,83
2022-11-02T08:31:34.000Z,82
2022-11-02T08:33:40.000Z,82
2022-11-02T08:35:07.000Z,82
2022-11-02T08:37:13.000Z,82
2022-11-02T08:38:39.000Z,82
2022-11-02T08:40:45.000Z,82
2022-11-02T08:42:12.000Z,82
2022-11-02T08:44:18.000Z,82
2022-11-02T08:45:44.000Z,83
2022-11-02T08:48:21.000Z,83
2022-11-02T08:49:47.000Z,82
2022-11-02T08:51:54.000Z,82
2022-11-02T08:54:45.000Z,81
2022-11-02T08:56:12.000Z,82
2022-11-02T08:58:18.000Z,82
2022-11-02T08:59:44.000Z,82
2022-11-02T09:01:50.000Z,82
2022-11-02T09:03:17.000Z,82
2022-11-02T09:05:31.000Z,81
2022-11-02T09:06:57.000Z,82
2022-11-02T09:09:03.000Z,81
2022-11-02T09:10:30.000Z,80
2022-11-02T09:12:36.000Z,80
2022-11-02T09:14:02.000Z,79
2022-11-02T09:16:08.000Z,80
2022-11-02T09:17:35.000Z,80
2022-11-02T09:19:41.000Z,81
2022-11-02T09:21:08.000Z,81
2022-11-02T09:23:14.000Z,79
2022-11-02T09:24:40.000Z,80
2022-11-02T09:26:46.000Z,80
2022-11-02T09:28:13.000Z,81
2022-11-02T09:30:19.000Z,80
2022-11-02T09:33:10.000Z,80
2022-11-02T09:34:37.000Z,80
2022-11-02T09:36:43.000Z,78
2022-11-02T09:38:09.000Z,78
2022-11-02T09:40:16.000Z,77
2022-11-02T09:41:42.000Z,79
2022-11-02T09:43:48.000Z,78
2022-11-02T09:45:15.000Z,77
2022-11-02T09:47:21.000Z,78
2022-11-02T09:49:41.000Z,77
2022-11-02T09:51:47.000Z,77
2022-11-02T09:53:14.000Z,78
2022-11-02T09:55:20.000Z,75
2022-11-02T09:56:47.000Z,76
2022-11-02T09:58:53.000Z,77
2022-11-02T10:00:19.000Z,76
2022-11-02T10:02:25.000Z,77
2022-11-02T10:03:52.000Z,76
2022-11-02T10:05:58.000Z,77
2022-11-02T10:07:25.000Z,75
2022-11-02T10:09:31.000Z,75
2022-11-02T10:12:22.000Z,75
2022-11-02T10:13:49.000Z,75
2022-11-02T10:16:00.000Z,75
2022-11-02T10:17:26.000Z,74
2022-11-02T10:19:32.000Z,75
2022-11-02T10:20:59.000Z,73
2022-11-02T10:23:05.000Z,72
2022-11-02T10:24:32.000Z,72
2022-11-02T10:26:38.000Z,73
2022-11-02T10:28:05.000Z,73
2022-11-02T10:30:11.000Z,73
2022-11-02T10:31:37.000Z,73
2022-11-02T10:33:43.000Z,72
2022-11-02T10:35:10.000Z,72
2022-11-02T10:37:42.000Z,73
2022-11-02T10:39:09.000Z,73
2022-11-02T10:41:15.000Z,73
2022-11-02T10:42:42.000Z,73
2022-11-02T10:44:48.000Z,73
2022-11-02T10:46:14.000Z,71
2022-11-02T10:48:20.000Z,72
2022-11-02T10:51:12.000Z,70
2022-11-02T10:52:38.000Z,71
2022-11-02T10:54:44.000Z,72
2022-11-02T10:56:11.000Z,72
2022-11-02T10:58:17.000Z,71
2022-11-02T10:59:43.000Z,72
2022-11-02T11:01:50.000Z,72
2022-11-02T11:03:16.000Z,72
2022-11-02T11:05:22.000Z,73
2022-11-02T11:06:49.000Z,73
2022-11-02T11:08:55.000Z,74
2022-11-02T11:10:21.000Z,72
2022-11-02T11:12:27.000Z,73
2022-11-02T11:16:30.000Z,73
2022-11-02T11:20:33.000Z,74
2022-11-02T11:21:59.000Z,74
2022-11-02T11:24:05.000Z,73
2022-11-02T11:25:32.000Z,73
2022-11-02T11:27:38.000Z,74
2022-11-02T11:30:29.000Z,72
2022-11-02T11:32:26.000Z,73
2022-11-02T11:34:36.000Z,73
2022-11-02T11:36:03.000Z,73
2022-11-02T11:38:09.000Z,72
2022-11-02T11:39:35.000Z,71
2022-11-02T11:41:41.000Z,70
2022-11-02T11:43:08.000Z,69
2022-11-02T11:45:14.000Z,69
2022-11-02T11:46:40.000Z,69
2022-11-02T11:48:46.000Z,70
2022-11-02T11:50:13.000Z,68
2022-11-02T11:52:34.000Z,70
2022-11-02T11:54:00.000Z,69
2022-11-02T11:56:07.000Z,69
2022-11-02T11:57:33.000Z,70
2022-11-02T11:59:39.000Z,72
2022-11-02T12:01:06.000Z,69
2022-11-02T12:03:16.000Z,71
2022-11-02T12:04:43.000Z,70
2022-11-02T12:06:49.000Z,69
2022-11-02T12:09:40.000Z,69
2022-11-02T12:11:07.000Z,70
2022-11-02T12:13:13.000Z,70
2022-11-02T12:14:40.000Z,71
2022-11-02T12:16:46.000Z,69
2022-11-02T12:18:12.000Z,70
2022-11-02T12:20:18.000Z,71
2022-11-02T12:21:45.000Z,71
2022-11-02T12:23:51.000Z,72
2022-11-02T12:25:18.000Z,72
2022-11-02T12:27:24.000Z,70
2022-11-02T12:28:50.000Z,69
2022-11-02T12:30:56.000Z,70
2022-11-02T12:32:23.000Z,70
2022-11-02T12:34:29.000Z,70
2022-11-02T12:35:56.000Z,68
2022-11-02T12:38:02.000Z,68
2022-11-02T12:39:28.000Z,69
2022-11-02T12:41:35.000Z,68
2022-11-02T12:43:01.000Z,69
2022-11-02T12:45:08.000Z,70
2022-11-02T12:47:59.000Z,67
2022-11-02T12:49:25.000Z,67
2022-11-02T12:51:31.000Z,67
2022-11-02T12:52:58.000Z,66
2022-11-02T12:55:04.000Z,66
2022-11-02T12:56:30.000Z,65
2022-11-02T12:58:37.000Z,67
2022-11-02T13:00:03.000Z,65
2022-11-02T13:02:09.000Z,66
2022-11-02T13:03:36.000Z,65
2022-11-02T13:05:42.000Z,67
2022-11-02T13:07:08.000Z,67
2022-11-02T13:09:15.000Z,65
2022-11-02T13:10:41.000Z,66
2022-11-02T13:12:47.000Z,65
2022-11-02T13:14:14.000Z,65
2022-11-02T13:16:21.000Z,67
2022-11-02T13:17:48.000Z,66
2022-11-02T13:19:54.000Z,65
2022-11-02T13:21:20.000Z,67
2022-11-02T13:23:26.000Z,65
2022-11-02T13:26:18.000Z,66
2022-11-02T13:27:44.000Z,67
2022-11-02T13:29:50.000Z,68
2022-11-02T13:31:17.000Z,68
2022-11-02T13:33:23.000Z,68
2022-11-02T13:34:50.000Z,69
2022-11-02T13:36:56.000Z,69
2022-11-02T13:38:22.000Z,71
2022-11-02T13:40:28.000Z,70
2022-11-02T13:41:55.000Z,71
2022-11-02T13:44:01.000Z,70
2022-11-02T13:45:28.000Z,70
2022-11-02T13:47:34.000Z,69
2022-11-02T13:49:00.000Z,70
2022-11-02T13:51:06.000Z,68
2022-11-02T13:52:33.000Z,69
2022-11-02T13:54:39.000Z,68
2022-11-02T13:56:06.000Z,68
2022-11-02T13:58:12.000Z,70
2022-11-02T13:59:38.000Z,68
2022-11-02T14:01:49.000Z,65
2022-11-02T14:04:40.000Z,65
2022-11-02T14:06:07.000Z,66
2022-11-02T14:08:13.000Z,65
2022-11-02T14:09:40.000Z,66
2022-11-02T14:11:46.000Z,67
2022-11-02T14:13:12.000Z,66
2022-11-02T14:15:18.000Z,66
2022-11-02T14:16:45.000Z,64
2022-11-02T14:18:51.000Z,64
2022-11-02T14:20:17.000Z,65
2022-11-02T14:22:23.000Z,65
2022-11-02T14:23:50.000Z,63
2022-11-02T14:25:56.000Z,65
2022-11-02T14:27:22.000Z,64
2022-11-02T14:29:29.000Z,66
2022-11-02T14:30:55.000Z,66
2022-11-02T14:33:01.000Z,67
2022-11-02T14:34:28.000Z,67
2022-11-02T14:36:34.000Z,66
2022-11-02T14:38:00.000Z,66
2022-11-02T14:40:07.000Z,66
2022-11-02T14:42:58.000Z,68
2022-11-02T14:44:24.000Z,68
2022-11-02T14:46:30.000Z,69
2022-11-02T14:47:57.000Z,70
2022-11-02T14:50:03.000Z,70
2022-11-02T14:51:30.000Z,70
2022-11-02T14:53:36.000Z,70
2022-11-02T14:55:02.000Z,71
2022-11-02T14:57:08.000Z,72
2022-11-02T14:58:35.000Z,72
2022-11-02T15:00:41.000Z,72
2022-11-02T15:02:08.000Z,72
2022-11-02T15:04:14.000Z,73
2022-11-02T15:05:40.000Z,72
2022-11-02T15:07:46.000Z,73
2022-11-02T15:09:13.000Z,73
2022-11-02T15:11:19.000Z,75
2022-11-02T15:12:46.000Z,75
2022-11-02T15:14:52.000Z,75
2022-11-02T15:16:18.000Z,74
2022-11-02T15:18:24.000Z,75
2022-11-02T15:21:16.000Z,76
2022-11-02T15:22:42.000Z,76
2022-11-02T15:24:48.000Z,76
2022-11-02T15:26:15.000Z,77
2022-11-02T15:28:21.000Z,77
2022-11-02T15:29:47.000Z,77
2022-11-02T15:31:53.000Z,78
2022-11-02T15:33:20.000Z,78
2022-11-02T15:35:26.000Z,78
2022-11-02T15:36:52.000Z,78
2022-11-02T15:38:59.000Z,80
2022-11-02T15:40:25.000Z,79
2022-11-02T15:42:31.000Z,80
2022-11-02T15:43:58.000Z,81
2022-11-02T15:46:04.000Z,79
2022-11-02T15:47:35.000Z,81
2022-11-02T15:49:42.000Z,80
2022-11-02T15:51:08.000Z,81
2022-11-02T15:53:14.000Z,81
2022-11-02T15:54:49.000Z,82
2022-11-02T15:56:56.000Z,82
2022-11-02T15:59:47.000Z,83
2022-11-02T16:01:13.000Z,82
2022-11-02T16:03:20.000Z,84
2022-11-02T16:04:46.000Z,83
2022-11-02T16:06:52.000Z,84
2022-11-02T16:08:19.000Z,84
2022-11-02T16:10:25.000Z,83
2022-11-02T16:11:52.000Z,84
2022-11-02T16:13:58.000Z,83
2022-11-02T16:15:35.000Z,84
2022-11-02T16:17:41.000Z,84
2022-11-02T16:19:08.000Z,84
2022-11-02T16:21:14.000Z,84
2022-11-02T16:22:40.000Z,85
2022-11-02T16:24:46.000Z,85
2022-11-02T16:26:13.000Z,85
2022-11-02T16:28:19.000Z,85
2022-11-02T16:29:46.000Z,85
2022-11-02T16:31:52.000Z,85
2022-11-02T16:33:18.000Z,86
2022-11-02T16:35:24.000Z,86
2022-11-02T16:38:15.000Z,87
2022-11-02T16:39:42.000Z,86
2022-11-02T16:41:48.000Z,86
2022-11-02T16:43:14.000Z,86
2022-11-02T16:45:21.000Z,86
2022-11-02T16:46:47.000Z,86
2022-11-02T16:48:53.000Z,86
2022-11-02T16:50:20.000Z,87
2022-11-02T16:52:26.000Z,87
2022-11-02T16:53:52.000Z,87
2022-11-02T16:55:59.000Z,87
2022-11-02T16:57:25.000Z,87
2022-11-02T16:59:31.000Z,87
2022-11-02T17:00:58.000Z,87
2022-11-02T17:03:04.000Z,87
2022-11-02T17:04:31.000Z,87
2022-11-02T17:06:37.000Z,87
2022-11-02T17:08:03.000Z,87
2022-11-02T17:10:10.000Z,88
2022-11-02T17:11:37.000Z,87
2022-11-02T17:13:43.000Z,87
2022-11-02T17:16:34.000Z,87
2022-11-02T17:18:00.000Z,88
2022-11-02T17:20:07.000Z,88
2022-11-02T17:21:33.000Z,88
2022-11-02T17:23:39.000Z,89
2022-11-02T17:25:06.000Z,89
2022-11-02T17:27:12.000Z,89
2022-11-02T17:28:38.000Z,89
2022-11-02T17:30:44.000Z,89
2022-11-02T17:32:11.000Z,90
2022-11-02T17:34:17.000Z,90
2022-11-02T17:35:44.000Z,90
2022-11-02T17:37:50.000Z,90
2022-11-02T17:39:17.000Z,90
2022-11-02T17:41:23.000Z,90
2022-11-02T17:42:49.000Z,90
2022-11-02T17:44:55.000Z,90
2022-11-02T17:46:22.000Z,90
2022-11-02T17:48:28.000Z,90
2022-11-02T17:49:55.000Z,90
2022-11-02T17:52:01.000Z,91
2022-11-02T17:54:52.000Z,90
2022-11-02T17:56:18.000Z,90
2022-11-02T17:58:24.000Z,90
2022-11-02T17:59:51.000Z,90
2022-11-02T18:01:57.000Z,90
2022-11-02T18:03:24.000Z,90
2022-11-02T18:05:37.000Z,90
2022-11-02T18:07:03.000Z,91
2022-11-02T18:09:09.000Z,91
2022-11-02T18:10:36.000Z,91
2022-11-02T18:12:42.000Z,91
2022-11-02T18:14:09.000Z,91
2022-11-02T18:16:15.000Z,91
2022-11-02T18:17:41.000Z,90
2022-11-02T18:19:47.000Z,90
2022-11-02T18:21:14.000Z,90
2022-11-02T18:23:20.000Z,91
2022-11-02T18:24:46.000Z,91
2022-11-02T18:26:53.000Z,91
2022-11-02T18:28:19.000Z,91
2022-11-02T18:30:25.000Z,91
2022-11-02T18:33:16.000Z,92
2022-11-02T18:34:43.000Z,91
2022-11-02T18:36:49.000Z,91
2022-11-02T18:38:15.000Z,91
2022-11-02T18:40:21.000Z,91
2022-11-02T18:41:48.000Z,91
2022-11-02T18:43:54.000Z,92
2022-11-02T18:45:26.000Z,93
2022-11-02T18:47:33.000Z,93
2022-11-02T18:48:59.000Z,92
2022-11-02T18:51:05.000Z,91
2022-11-02T18:52:32.000Z,92
2022-11-02T18:54:38.000Z,91
2022-11-02T18:56:05.000Z,92
2022-11-02T18:58:11.000Z,92
2022-11-02T18:59:37.000Z,92
2022-11-02T19:01:43.000Z,92
2022-11-02T19:03:10.000Z,91
2022-11-02T19:05:16.000Z,92
2022-11-02T19:06:43.000Z,93
2022-11-02T19:08:49.000Z,92
2022-11-02T19:11:40.000Z,93
2022-11-02T19:13:06.000Z,92
2022-11-02T19:15:13.000Z,93
2022-11-02T19:16:40.000Z,92
2022-11-02T19:18:46.000Z,93
2022-11-02T19:20:12.000Z,93
2022-11-02T19:22:18.000Z,94
2022-11-02T19:23:45.000Z,93
2022-11-02T19:25:51.000Z,93
2022-11-02T19:27:17.000Z,93
2022-11-02T19:29:23.000Z,93
2022-11-02T19:30:50.000Z,93
2022-11-02T19:32:56.000Z,94
2022-11-02T19:34:23.000Z,93
2022-11-02T19:36:29.000Z,94
2022-11-02T19:37:55.000Z,94
2022-11-02T19:40:01.000Z,94
2022-11-02T19:41:28.000Z,94
2022-11-02T19:43:34.000Z,94
2022-11-02T19:45:01.000Z,94
2022-11-02T19:47:07.000Z,94
2022-11-02T19:49:58.000Z,94
2022-11-02T19:51:24.000Z,93
2022-11-02T19:53:30.000Z,93
2022-11-02T19:54:57.000Z,94
2022-11-02T19:57:03.000Z,94
2022-11-02T19:58:30.000Z,94
2022-11-02T20:00:36.000Z,95
2022-11-02T20:02:02.000Z,95
2022-11-02T20:04:08.000Z,95
2022-11-02T20:05:35.000Z,94
2022-11-02T20:07:41.000Z,94
2022-11-02T20:09:08.000Z,95
2022-11-02T20:11:14.000Z,95
2022-11-02T20:12:40.000Z,95
2022-11-02T20:14:46.000Z,95
2022-11-02T20:16:13.000Z,96
2022-11-02T20:18:19.000Z,95
2022-11-02T20:19:46.000Z,94
2022-11-02T20:21:52.000Z,94
2022-11-02T20:23:19.000Z,94
2022-11-02T20:25:25.000Z,93
2022-11-02T20:28:16.000Z,93
2022-11-02T20:29:43.000Z,94
2022-11-02T20:31:49.000Z,95
2022-11-02T20:33:15.000Z,94
2022-11-02T20:35:21.000Z,94
2022-11-02T20:36:48.000Z,94
2022-11-02T20:38:54.000Z,94
2022-11-02T20:40:21.000Z,94
2022-11-02T20:42:27.000Z,94
2022-11-02T20:43:54.000Z,94
2022-11-02T20:46:00.000Z,94
2022-11-02T20:48:01.000Z,94
2022-11-02T20:50:08.000Z,94
2022-11-02T20:51:42.000Z,94
2022-11-02T20:53:48.000Z,95
2022-11-02T20:55:15.000Z,95
2022-11-02T20:57:21.000Z,94
2022-11-02T20:58:47.000Z,94
2022-11-02T21:01:01.000Z,94
2022-11-02T21:02:28.000Z,94
2022-11-02T21:04:34.000Z,95
2022-11-02T21:07:25.000Z,95
2022-11-02T21:08:51.000Z,95
2022-11-02T21:10:57.000Z,95
2022-11-02T21:12:24.000Z,95
2022-11-02T21:14:30.000Z,95
2022-11-02T21:15:57.000Z,95
2022-11-02T21:18:03.000Z,95
2022-11-02T21:19:29.000Z,95
2022-11-02T21:21:35.000Z,95
2022-11-02T21:23:02.000Z,95
2022-11-02T21:25:08.000Z,95
2022-11-02T21:26:35.000Z,95
2022-11-02T21:28:41.000Z,95
2022-11-02T21:30:08.000Z,95
2022-11-02T21:32:14.000Z,96
2022-11-02T21:33:40.000Z,96
2022-11-02T21:35:46.000Z,96
2022-11-02T21:37:13.000Z,96
2022-11-02T21:39:19.000Z,96
2022-11-02T21:40:45.000Z,96
2022-11-02T21:42:51.000Z,96
2022-11-02T21:45:42.000Z,95
2022-11-02T21:47:09.000Z,96
2022-11-02T21:49:15.000Z,96
2022-11-02T21:50:42.000Z,96
2022-11-02T21:52:48.000Z,97
2022-11-02T21:54:14.000Z,96
2022-11-02T21:56:20.000Z,96
2022-11-02T21:57:47.000Z,96
2022-11-02T21:59:53.000Z,96
2022-11-02T22:01:20.000Z,96
2022-11-02T22:03:26.000Z,95
2022-11-02T22:04:53.000Z,95
2022-11-02T22:06:59.000Z,95
2022-11-02T22:08:25.000Z,96
2022-11-02T22:10:31.000Z,96
2022-11-02T22:11:58.000Z,95
2022-11-02T22:14:04.000Z,95
2022-11-02T22:15:30.000Z,95
2022-11-02T22:17:44.000Z,95
2022-11-02T22:19:16.000Z,96
2022-11-02T22:21:22.000Z,95
2022-11-02T22:24:13.000Z,95
2022-11-02T22:25:40.000Z,96
2022-11-02T22:27:46.000Z,95
2022-11-02T22:29:12.000Z,95
2022-11-02T22:31:18.000Z,96
2022-11-02T22:32:45.000Z,95
2022-11-02T22:34:51.000Z,95
2022-11-02T22:36:18.000Z,96
2022-11-02T22:38:24.000Z,96
2022-11-02T22:39:50.000Z,96
2022-11-02T22:41:56.000Z,96
2022-11-02T22:43:23.000Z,96
2022-11-02T22:45:29.000Z,96
2022-11-02T22:46:55.000Z,96
2022-11-02T22:49:01.000Z,96
2022-11-02T22:50:28.000Z,96
2022-11-02T22:52:34.000Z,96
2022-11-02T22:54:00.000Z,96
2022-11-02T22:56:07.000Z,96
2022-11-02T22:57:33.000Z,96
2022-11-02T22:59:39.000Z,96
2022-11-02T23:02:30.000Z,96
2022-11-02T23:03:57.000Z,96
2022-11-02T23:06:03.000Z,95
2022-11-02T23:07:29.000Z,96
2022-11-02T23:09:36.000Z,96
2022-11-02T23:11:02.000Z,96
2022-11-02T23:13:08.000Z,96
2022-11-02T23:14:35.000Z,96
2022-11-02T23:16:41.000Z,96
2022-11-02T23:18:08.000Z,97
2022-11-02T23:20:14.000Z,96
2022-11-02T23:21:41.000Z,96
2022-11-02T23:23:47.000Z,96
2022-11-02T23:25:13.000Z,96
2022-11-02T23:27:19.000Z,96
2022-11-02T23:28:46.000Z,96
2022-11-02T23:30:52.000Z,96
2022-11-02T23:32:18.000Z,96
2022-11-02T23:34:24.000Z,96
2022-11-02T23:35:51.000Z,96
2022-11-02T23:37:57.000Z,96
2022-11-02T23:40:48.000Z,96
2022-11-02T23:42:15.000Z,96
2022-11-02T23:44:21.000Z,96
2022-11-02T23:45:47.000Z,97
2022-11-02T23:47:53.000Z,96
2022-11-02T23:49:20.000Z,96
2022-11-02T23:51:26.000Z,97
2022-11-02T23:52:52.000Z,96
2022-11-02T23:54:58.000Z,96
2022-11-02T23:56:25.000Z,96
2022-11-02T23:58:31.000Z,96
2022-11-02T23:59:58.000Z,96
